Marianne Danica — OWWO2 — position and weather

sailwx.info

Track history (hours):
 
Tides and Currents Weather Stations Pressure Air Temp Water Temp Dewpoint Dewpoint Depression Visibility Wind Speed Wind Dir Waves Ship Positions

Marianne Danica

Last reported at 2014-Oct-16 04:31 UTC. Time now 2014-Oct-24 09:36 UTC.
Position N 54°32' E 018°31'.
Warning: this ship's position is 8 days out of date.

Length 71 m; draft 3.2 m.

Type: Ship (hazmat cat A). MMSI: 219544000.

Date/timePositionNaut miles runAvg speedWind from/ knotsBaromVisibWave heightAir tempDewpointWater temp
2014-Oct-16 04:31N 54°32' E 018°31'0 0.2
2014-Oct-16 03:32N 54°32' E 018°31'0 0.0
2014-Oct-15 10:32N 54°32' E 018°31'0 0.0
2014-Oct-15 09:32N 54°32' E 018°31'0 0.0
2014-Oct-15 08:32N 54°32' E 018°31'0 0.0
2014-Oct-15 07:32N 54°32' E 018°31'0 0.0
2014-Oct-15 06:32N 54°32' E 018°31'1 0.8
2014-Oct-15 05:33N 54°32' E 018°33'7 7.0
2014-Oct-15 04:33N 54°32' E 018°45'7 6.7
2014-Oct-15 03:33N 54°37' E 018°53'8 7.7
2014-Oct-15 02:33N 54°44' E 018°59'7 6.5
2014-Oct-15 01:33N 54°49' E 018°54'8 7.6
2014-Oct-15 00:33N 54°54' E 018°43'8 8.4
2014-Oct-14 23:33N 54°59' E 018°31'8 7.6
2014-Oct-14 22:33N 54°59' E 018°18'8 7.9
2014-Oct-14 21:33N 54°58' E 018°04'93 7.5
2014-Oct-14 09:05N 54°54' E 015°22'5 8.6
2014-Oct-14 08:33N 54°54' E 015°14'9 8.8
2014-Oct-14 07:33N 54°54' E 014°59'9 9.2
2014-Oct-14 06:33N 54°55' E 014°43'9 9.0
2014-Oct-14 05:33N 54°55' E 014°27'52 8.7
2014-Oct-13 23:33N 55°12' E 013°01'10 9.0
2014-Oct-13 22:26N 55°16' E 012°45'7 7.4
2014-Oct-13 21:33N 55°21' E 012°38'10 9.7
2014-Oct-13 20:33N 55°31' E 012°41'9 9.5
2014-Oct-13 19:33N 55°40' E 012°41'10 9.9
2014-Oct-13 18:33N 55°50' E 012°41'1010.0
2014-Oct-13 17:33N 55°60' E 012°38'8 8.4
2014-Oct-13 16:33N 56°07' E 012°30'9 9.4
2014-Oct-13 15:33N 56°14' E 012°19'1110.0
2014-Oct-13 14:28N 56°25' E 012°15'1010.5
2014-Oct-13 13:33N 56°34' E 012°13'1010.2
2014-Oct-13 12:33N 56°44' E 012°09'1010.2
2014-Oct-13 11:33N 56°54' E 012°04'1010.1
2014-Oct-13 10:33N 57°03' E 012°11'4 3.2
2014-Oct-13 09:20N 57°07' E 012°14'0 0.0
2014-Oct-13 06:19N 57°07' E 012°14'1 1.7
2014-Oct-13 05:32N 57°06' E 012°13'3 2.0
2014-Oct-13 04:06N 57°03' E 012°11'0 0.0
2014-Oct-13 03:30N 57°03' E 012°11'0 0.0
2014-Oct-13 02:30N 57°03' E 012°11'0 0.0
2014-Oct-13 01:24N 57°03' E 012°11'0 0.0
2014-Oct-13 00:30N 57°03' E 012°11'0 0.0
2014-Oct-12 23:30N 57°03' E 012°11'0 0.0
2014-Oct-12 22:18N 57°03' E 012°11'0 0.0
2014-Oct-12 21:30N 57°03' E 012°11'0 0.0
2014-Oct-12 20:24N 57°03' E 012°11'0 0.0
2014-Oct-12 19:24N 57°03' E 012°11'0 0.0
2014-Oct-12 18:18N 57°03' E 012°11'0 0.0
2014-Oct-12 17:30N 57°03' E 012°11'0 0.0
2014-Oct-12 16:12N 57°03' E 012°11'0 0.0
2014-Oct-12 15:30N 57°03' E 012°11'0 0.0
2014-Oct-12 14:24N 57°03' E 012°11'0 0.0
2014-Oct-12 13:24N 57°03' E 012°11'0 0.0
2014-Oct-12 12:30N 57°03' E 012°11'0 0.0
2014-Oct-12 11:18N 57°03' E 012°11'0 0.0
2014-Oct-12 10:30N 57°03' E 012°11'0 0.0
2014-Oct-12 09:30N 57°03' E 012°11'0 0.0
2014-Oct-12 08:30N 57°03' E 012°11'0 0.0
2014-Oct-12 06:18N 57°03' E 012°11'0 0.0
2014-Oct-12 05:24N 57°03' E 012°11'0 0.0
2014-Oct-12 04:30N 57°03' E 012°11'0 0.0
2014-Oct-12 03:24N 57°03' E 012°11'0 0.0
2014-Oct-12 02:29N 57°03' E 012°11'0 0.0
2014-Oct-12 01:29N 57°03' E 012°11'0 0.0
2014-Oct-12 00:29N 57°03' E 012°11'0 0.0
2014-Oct-11 23:29N 57°03' E 012°11'0 0.0
2014-Oct-11 22:11N 57°03' E 012°11'0 0.4
2014-Oct-11 21:33N 57°03' E 012°10'8 7.8
2014-Oct-11 20:33N 57°04' E 011°56'15 7.7
2014-Oct-11 18:33N 57°15' E 011°37'9 8.9
2014-Oct-11 17:33N 57°24' E 011°31'8 7.5
2014-Oct-11 16:33N 57°29' E 011°20'7 6.7
2014-Oct-11 15:33N 57°34' E 011°12'6 6.5
2014-Oct-11 14:33N 57°38' E 011°04'7 6.7
2014-Oct-11 13:33N 57°43' E 010°55'7 7.1
2014-Oct-11 12:33N 57°47' E 010°44'9 9.4
2014-Oct-11 11:33N 57°46' E 010°27'9 9.3
2014-Oct-11 10:33N 57°44' E 010°10'176 8.6
2014-Oct-10 14:12N 55°35' E 006°34'710.0
2014-Oct-10 13:33N 55°29' E 006°27'1010.0
2014-Oct-10 12:33N 55°21' E 006°16'10 9.9
2014-Oct-10 11:33N 55°13' E 006°08'10 9.8
2014-Oct-10 10:33N 55°04' E 005°59'10 9.9
2014-Oct-10 09:33N 54°55' E 005°50'10 9.8
2014-Oct-10 08:33N 54°47' E 005°41'10 9.9
2014-Oct-10 07:33N 54°39' E 005°32'24 9.7
2014-Oct-10 05:05N 54°18' E 005°11'5 9.7
2014-Oct-10 04:32N 54°14' E 005°06'9 9.5
2014-Oct-10 03:33N 54°06' E 004°59'9 9.1
2014-Oct-10 02:32N 53°56' E 004°56'9 9.2
2014-Oct-10 01:33N 53°48' E 004°53'9 9.5
2014-Oct-10 00:33N 53°38' E 004°49'9 9.5
2014-Oct-09 23:33N 53°29' E 004°45'10 9.4
2014-Oct-09 22:30N 53°20' E 004°39'38 9.6
2014-Oct-09 18:30N 52°46' E 004°10'9011.3
2014-Oct-09 10:31N 51°40' E 002°30'10 9.3
2014-Oct-09 09:28N 51°33' E 002°20'9 8.2
2014-Oct-09 08:25N 51°25' E 002°12'7 8.3
2014-Oct-09 07:33N 51°19' E 002°08'8 8.1
2014-Oct-09 06:34N 51°13' E 001°59'9 9.2
2014-Oct-09 05:33N 51°08' E 001°47'10 9.8
2014-Oct-09 04:34N 51°00' E 001°37'4310.7
2014-Oct-09 00:29N 50°28' E 000°50'1111.1
2014-Oct-08 23:32N 50°25' E 000°34'  
Track history (hours):
 
Tides and Currents Weather Stations Pressure Air Temp Water Temp Dewpoint Dewpoint Depression Visibility Wind Speed Wind Dir Waves Ship Positions

Marianne Danica

Last reported at 2014-Oct-16 04:31 UTC. Time now 2014-Oct-24 09:36 UTC.
Position N 54°32' E 018°31'.
Warning: this ship's position is 8 days out of date.

Length 71 m; draft 3.2 m.

Type: Ship (hazmat cat A). MMSI: 219544000.

Date/timePositionNaut miles runAvg speedWind from/ knotsBaromVisibWave heightAir tempDewpointWater temp
2014-Oct-16 04:31N 54°32' E 018°31'0 0.2
2014-Oct-16 03:32N 54°32' E 018°31'0 0.0
2014-Oct-15 10:32N 54°32' E 018°31'0 0.0
2014-Oct-15 09:32N 54°32' E 018°31'0 0.0
2014-Oct-15 08:32N 54°32' E 018°31'0 0.0
2014-Oct-15 07:32N 54°32' E 018°31'0 0.0
2014-Oct-15 06:32N 54°32' E 018°31'1 0.8
2014-Oct-15 05:33N 54°32' E 018°33'7 7.0
2014-Oct-15 04:33N 54°32' E 018°45'7 6.7
2014-Oct-15 03:33N 54°37' E 018°53'8 7.7
2014-Oct-15 02:33N 54°44' E 018°59'7 6.5
2014-Oct-15 01:33N 54°49' E 018°54'8 7.6
2014-Oct-15 00:33N 54°54' E 018°43'8 8.4
2014-Oct-14 23:33N 54°59' E 018°31'8 7.6
2014-Oct-14 22:33N 54°59' E 018°18'8 7.9
2014-Oct-14 21:33N 54°58' E 018°04'93 7.5
2014-Oct-14 09:05N 54°54' E 015°22'5 8.6
2014-Oct-14 08:33N 54°54' E 015°14'9 8.8
2014-Oct-14 07:33N 54°54' E 014°59'9 9.2
2014-Oct-14 06:33N 54°55' E 014°43'9 9.0
2014-Oct-14 05:33N 54°55' E 014°27'52 8.7
2014-Oct-13 23:33N 55°12' E 013°01'10 9.0
2014-Oct-13 22:26N 55°16' E 012°45'7 7.4
2014-Oct-13 21:33N 55°21' E 012°38'10 9.7
2014-Oct-13 20:33N 55°31' E 012°41'9 9.5
2014-Oct-13 19:33N 55°40' E 012°41'10 9.9
2014-Oct-13 18:33N 55°50' E 012°41'1010.0
2014-Oct-13 17:33N 55°60' E 012°38'8 8.4
2014-Oct-13 16:33N 56°07' E 012°30'9 9.4
2014-Oct-13 15:33N 56°14' E 012°19'1110.0
2014-Oct-13 14:28N 56°25' E 012°15'1010.5
2014-Oct-13 13:33N 56°34' E 012°13'1010.2
2014-Oct-13 12:33N 56°44' E 012°09'1010.2
2014-Oct-13 11:33N 56°54' E 012°04'1010.1
2014-Oct-13 10:33N 57°03' E 012°11'4 3.2
2014-Oct-13 09:20N 57°07' E 012°14'0 0.0
2014-Oct-13 06:19N 57°07' E 012°14'1 1.7
2014-Oct-13 05:32N 57°06' E 012°13'3 2.0
2014-Oct-13 04:06N 57°03' E 012°11'0 0.0
2014-Oct-13 03:30N 57°03' E 012°11'0 0.0
2014-Oct-13 02:30N 57°03' E 012°11'0 0.0
2014-Oct-13 01:24N 57°03' E 012°11'0 0.0
2014-Oct-13 00:30N 57°03' E 012°11'0 0.0
2014-Oct-12 23:30N 57°03' E 012°11'0 0.0
2014-Oct-12 22:18N 57°03' E 012°11'0 0.0
2014-Oct-12 21:30N 57°03' E 012°11'0 0.0
2014-Oct-12 20:24N 57°03' E 012°11'0 0.0
2014-Oct-12 19:24N 57°03' E 012°11'0 0.0
2014-Oct-12 18:18N 57°03' E 012°11'0 0.0
2014-Oct-12 17:30N 57°03' E 012°11'0 0.0
2014-Oct-12 16:12N 57°03' E 012°11'0 0.0
2014-Oct-12 15:30N 57°03' E 012°11'0 0.0
2014-Oct-12 14:24N 57°03' E 012°11'0 0.0
2014-Oct-12 13:24N 57°03' E 012°11'0 0.0
2014-Oct-12 12:30N 57°03' E 012°11'0 0.0
2014-Oct-12 11:18N 57°03' E 012°11'0 0.0
2014-Oct-12 10:30N 57°03' E 012°11'0 0.0
2014-Oct-12 09:30N 57°03' E 012°11'0 0.0
2014-Oct-12 08:30N 57°03' E 012°11'0 0.0
2014-Oct-12 06:18N 57°03' E 012°11'0 0.0
2014-Oct-12 05:24N 57°03' E 012°11'0 0.0
2014-Oct-12 04:30N 57°03' E 012°11'0 0.0
2014-Oct-12 03:24N 57°03' E 012°11'0 0.0
2014-Oct-12 02:29N 57°03' E 012°11'0 0.0
2014-Oct-12 01:29N 57°03' E 012°11'0 0.0
2014-Oct-12 00:29N 57°03' E 012°11'0 0.0
2014-Oct-11 23:29N 57°03' E 012°11'0 0.0
2014-Oct-11 22:11N 57°03' E 012°11'0 0.4
2014-Oct-11 21:33N 57°03' E 012°10'8 7.8
2014-Oct-11 20:33N 57°04' E 011°56'15 7.7
2014-Oct-11 18:33N 57°15' E 011°37'9 8.9
2014-Oct-11 17:33N 57°24' E 011°31'8 7.5
2014-Oct-11 16:33N 57°29' E 011°20'7 6.7
2014-Oct-11 15:33N 57°34' E 011°12'6 6.5
2014-Oct-11 14:33N 57°38' E 011°04'7 6.7
2014-Oct-11 13:33N 57°43' E 010°55'7 7.1
2014-Oct-11 12:33N 57°47' E 010°44'9 9.4
2014-Oct-11 11:33N 57°46' E 010°27'9 9.3
2014-Oct-11 10:33N 57°44' E 010°10'176 8.6
2014-Oct-10 14:12N 55°35' E 006°34'710.0
2014-Oct-10 13:33N 55°29' E 006°27'1010.0
2014-Oct-10 12:33N 55°21' E 006°16'10 9.9
2014-Oct-10 11:33N 55°13' E 006°08'10 9.8
2014-Oct-10 10:33N 55°04' E 005°59'10 9.9
2014-Oct-10 09:33N 54°55' E 005°50'10 9.8
2014-Oct-10 08:33N 54°47' E 005°41'10 9.9
2014-Oct-10 07:33N 54°39' E 005°32'24 9.7
2014-Oct-10 05:05N 54°18' E 005°11'5 9.7
2014-Oct-10 04:32N 54°14' E 005°06'9 9.5
2014-Oct-10 03:33N 54°06' E 004°59'9 9.1
2014-Oct-10 02:32N 53°56' E 004°56'9 9.2
2014-Oct-10 01:33N 53°48' E 004°53'9 9.5
2014-Oct-10 00:33N 53°38' E 004°49'9 9.5
2014-Oct-09 23:33N 53°29' E 004°45'10 9.4
2014-Oct-09 22:30N 53°20' E 004°39'38 9.6
2014-Oct-09 18:30N 52°46' E 004°10'9011.3
2014-Oct-09 10:31N 51°40' E 002°30'10 9.3
2014-Oct-09 09:28N 51°33' E 002°20'9 8.2
2014-Oct-09 08:25N 51°25' E 002°12'7 8.3
2014-Oct-09 07:33N 51°19' E 002°08'8 8.1
2014-Oct-09 06:34N 51°13' E 001°59'9 9.2
2014-Oct-09 05:33N 51°08' E 001°47'10 9.8
2014-Oct-09 04:34N 51°00' E 001°37'4310.7
2014-Oct-09 00:29N 50°28' E 000°50'1111.1
2014-Oct-08 23:32N 50°25' E 000°34'  

Dump ship's entire track history